Latest Weather Observations for Esperance

IDW60801

Issued at 11:34 am WST Sunday 25 June 2017 (issued every 30 minutes, with the page automatically refreshed every 10 minutes)

About weather observations | Map of weather stations | Latest weather observations for WA | Other Formats
Station Details ID: 009789 Name: ESPERANCE Lat: -33.83 Lon: 121.89 Height: 25.0 m
Data from the previous 72 hours. | See also: Recent months at Esperance
Date/Time
WST
Temp
°C
App
Temp
°C
Dew
Point
°C
Rel
Hum
%
Delta-T
°C
Wind Press
QNH
hPa
Press
MSL
hPa
Rain since
9am
mm
Dir  Spd
km/h
Gust
km/h
Spd
kts
Gust
kts
25/11:30am 13.1 11.1 8.7 74 2.2 N 9 13 5 7 1027.2 1027.2 0.0
25/11:00am 12.9 11.1 9.3 79 1.8 N 9 13 5 7 1027.6 1027.6 0.0
25/10:30am 12.7 10.8 9.1 79 1.8 N 9 11 5 6 1027.6 1027.6 0.0
25/10:00am 12.2 10.9 9.8 85 1.2 NNW 7 9 4 5 1027.8 1027.8 0.0
25/09:30am 11.7 10.3 9.5 86 1.1 NNW 7 7 4 4 1027.8 1027.8 0.0
25/09:00am 11.0 9.2 9.4 90 0.8 N 9 11 5 6 1027.7 1027.7 2.4
25/08:30am 10.5 9.1 9.7 95 0.4 N 7 9 4 5 1027.4 1027.4 2.4
25/08:00am 10.0 8.7 9.2 95 0.4 NW 6 9 3 5 1027.2 1027.2 2.4
25/07:30am 9.9 8.4 9.3 96 0.3 NNW 7 9 4 5 1026.9 1026.9 2.4
25/07:00am 9.9 8.6 9.1 95 0.4 NW 6 7 3 4 1026.7 1026.7 2.4
25/06:30am 9.8 8.3 9.0 95 0.4 NW 7 9 4 5 1026.6 1026.6 2.4
25/06:00am 9.6 7.7 9.0 96 0.3 NNW 9 11 5 6 1026.4 1026.4 2.4
25/05:30am 9.5 7.9 8.9 96 0.3 NW 7 9 4 5 1026.3 1026.3 2.4
25/05:00am 9.6 7.7 9.0 96 0.3 WNW 9 13 5 7 1026.3 1026.3 2.4
25/04:30am 9.5 7.6 9.1 97 0.2 NW 9 11 5 6 1026.1 1026.1 2.4
25/04:00am 10.0 8.5 9.2 95 0.4 N 7 9 4 5 1026.1 1026.1 2.4
25/03:30am 10.1 8.6 9.3 95 0.4 N 7 11 4 6 1026.3 1026.3 2.4
25/03:00am 10.1 8.7 9.5 96 0.3 NNE 7 9 4 5 1026.3 1026.3 2.4
25/02:30am 10.3 9.1 9.5 95 0.4 N 6 9 3 5 1026.4 1026.4 2.4
25/02:00am 11.4 9.8 7.9 79 1.7 S 6 13 3 7 1026.3 1026.3 2.4
25/01:30am 11.9 9.7 8.0 77 1.9 SSE 9 13 5 7 1026.2 1026.2 2.4
25/01:00am 12.0 9.6 8.8 81 1.6 S 11 19 6 10 1026.2 1026.2 2.4
25/12:30am 11.0 10.5 9.2 89 0.9 N 2 7 1 4 1026.2 1026.2 2.4
25/12:00am 11.1 9.5 8.9 86 1.1 N 7 9 4 5 1026.5 1026.5 2.2
 
Date/Time
WST
Temp
°C
App
Temp
°C
Dew
Point
°C
Rel
Hum
%
Delta-T
°C
Wind Press
QNH
hPa
Press
MSL
hPa
Rain since
9am
mm
Dir  Spd
km/h
Gust
km/h
Spd
kts
Gust
kts
24/11:30pm 12.5 9.5 7.8 73 2.3 S 13 20 7 11 1026.4 1026.4 2.2
24/11:00pm 12.6 9.0 8.3 75 2.1 SSE 17 24 9 13 1026.4 1026.4 2.2
24/10:30pm 12.6 9.3 7.9 73 2.3 SSE 15 20 8 11 1026.4 1026.4 2.2
24/10:00pm 12.1 9.9 8.0 76 2.0 SSE 9 13 5 7 1026.3 1026.3 2.2
24/09:30pm 12.3 9.8 6.4 67 2.8 SSW 9 11 5 6 1026.1 1026.1 2.2
24/09:00pm 11.6 10.4 10.4 92 0.6 WNW 7 7 4 4 1026.2 1026.2 2.2
24/08:30pm 11.7 10.8 10.5 92 0.6 NW 6 7 3 4 1026.1 1026.1 2.2
24/08:00pm 12.0 10.9 10.0 87 1.0 WNW 6 9 3 5 1026.0 1026.0 2.2
24/07:30pm 11.7 10.8 10.7 94 0.5 NNW 6 7 3 4 1025.7 1025.7 2.2
24/07:00pm 11.9 10.8 10.7 92 0.6 N 7 11 4 6 1025.7 1025.7 2.2
24/06:30pm 11.9 10.6 11.1 95 0.4 NNW 9 13 5 7 1025.6 1025.6 2.2
24/06:00pm 12.1 11.1 11.1 94 0.5 NNW 7 13 4 7 1025.4 1025.4 2.2
24/05:30pm 12.4 11.6 11.1 92 0.7 NNE 6 11 3 6 1025.0 1025.0 2.2
24/05:00pm 13.2 11.7 9.2 77 2.0 S 7 9 4 5 1024.9 1024.9 2.2
24/04:30pm 13.1 11.0 9.8 80 1.7 SSE 11 17 6 9 1024.7 1024.7 2.2
24/04:00pm 13.0 11.9 10.7 86 1.2 SSE 7 11 4 6 1024.7 1024.7 2.2
24/03:30pm 12.7 10.5 10.8 88 1.0 SE 13 20 7 11 1024.6 1024.6 2.2
24/03:10pm 12.8 11.8 11.1 89 0.9 SSE 7 11 4 6 1024.7 1024.7 2.2
24/03:00pm 12.7 11.6 10.6 87 1.1 SSW 7 13 4 7 1024.6 1024.6 2.2
24/02:30pm 12.8 11.9 11.3 91 0.8 S 7 11 4 6 1024.4 1024.4 0.4
24/02:13pm 13.2 11.1 11.3 88 1.0 SSE 13 22 7 12 1024.5 1024.5 0.0
24/02:00pm 14.2 13.3 10.8 80 1.8 WSW 6 9 3 5 1024.4 1024.4 0.0
24/01:30pm 13.3 12.2 10.8 85 1.3 W 7 11 4 6 1024.6 1024.6 0.0
24/01:21pm 13.2 12.2 10.9 86 1.2 WSW 7 11 4 6 1024.7 1024.7 0.0
24/01:00pm 12.8 9.9 9.6 81 1.6 S 15 24 8 13 1025.0 1025.0 0.0
24/12:30pm 14.1 10.6 8.7 70 2.7 SSE 17 22 9 12 1025.1 1025.1 0.0
24/12:00pm 14.5 10.5 8.1 65 3.2 SSE 19 22 10 12 1025.3 1025.3 0.0
24/11:30am 14.7 11.6 9.0 68 2.9 SSE 15 22 8 12 1025.8 1025.8 0.0
24/11:00am 15.0 12.8 8.0 63 3.5 SSE 9 13 5 7 1026.1 1026.1 0.0
24/10:30am 14.1 11.3 8.7 70 2.7 SSE 13 19 7 10 1026.5 1026.5 0.0
24/10:00am 13.8 11.0 8.4 70 2.7 SSE 13 17 7 9 1026.7 1026.7 0.0
24/09:30am 13.9 12.5 8.7 71 2.6 SW 6 15 3 8 1026.6 1026.6 0.0
24/09:00am 13.5 13.2 8.5 72 2.5 CALM 0 0 0 0 1026.6 1026.6 8.4
24/08:30am 13.3 11.6 8.5 72 2.4 NW 7 7 4 4 1026.3 1026.3 8.4
24/08:00am 12.0 10.3 8.3 78 1.8 WNW 7 9 4 5 1026.1 1026.1 8.4
24/07:30am 11.6 10.1 8.5 81 1.5 W 6 7 3 4 1025.8 1025.8 8.4
24/07:00am 11.7 10.3 8.7 82 1.5 NNW 6 6 3 3 1025.6 1025.6 8.4
24/06:30am 11.6 10.2 8.8 83 1.4 NNW 6 6 3 3 1025.3 1025.3 8.4
24/06:00am 11.7 10.3 8.7 82 1.5 NNW 6 7 3 4 1025.1 1025.1 8.4
24/05:30am 11.7 10.1 8.7 82 1.5 NW 7 9 4 5 1025.0 1025.0 8.4
24/05:00am 11.8 9.7 8.1 78 1.8 W 9 11 5 6 1024.8 1024.8 8.4
24/04:30am 11.5 9.5 8.7 83 1.4 WNW 9 11 5 6 1024.9 1024.9 8.4
24/04:00am 11.8 10.1 8.3 79 1.7 W 7 11 4 6 1024.9 1024.9 8.4
24/03:30am 12.0 9.9 8.3 78 1.8 W 9 9 5 5 1024.8 1024.8 8.4
24/03:00am 12.1 10.3 9.3 83 1.4 WNW 9 9 5 5 1024.9 1024.9 8.4
24/02:30am 11.8 10.2 8.8 82 1.5 NW 7 7 4 4 1025.0 1025.0 8.4
24/02:00am 12.3 11.1 8.2 76 2.0 NNW 4 6 2 3 1025.1 1025.1 8.4
24/01:30am 12.0 10.5 8.3 78 1.8 NNW 6 9 3 5 1024.9 1024.9 8.4
24/01:00am 12.0 10.5 8.3 78 1.8 N 6 9 3 5 1025.1 1025.1 8.4
24/12:30am 12.3 10.7 7.8 74 2.2 N 6 9 3 5 1025.1 1025.1 8.4
24/12:00am 12.2 10.6 8.1 76 2.0 NW 6 9 3 5 1025.1 1025.1 8.4
 
Date/Time
WST
Temp
°C
App
Temp
°C
Dew
Point
°C
Rel
Hum
%
Delta-T
°C
Wind Press
QNH
hPa
Press
MSL
hPa
Rain since
9am
mm
Dir  Spd
km/h
Gust
km/h
Spd
kts
Gust
kts
23/11:30pm 13.0 11.1 6.5 64 3.1 SSE 6 11 3 6 1025.1 1025.1 8.4
23/11:00pm 13.0 12.1 7.7 70 2.6 E 2 6 1 3 1025.2 1025.2 8.4
23/10:30pm 13.9 10.8 5.6 57 3.9 SSE 11 17 6 9 1025.2 1025.2 8.4
23/10:00pm 14.0 10.7 6.5 60 3.6 SSE 13 17 7 9 1025.1 1025.1 8.4
23/09:30pm 14.2 9.7 6.2 58 3.8 SE 19 24 10 13 1025.2 1025.2 8.4
23/09:00pm 14.1 9.9 7.3 63 3.3 SE 19 24 10 13 1025.2 1025.2 8.4
23/08:30pm 13.9 9.1 7.3 64 3.2 SSE 22 32 12 17 1025.3 1025.3 8.4
23/08:00pm 14.1 10.0 7.8 66 3.1 SE 19 28 10 15 1025.1 1025.1 8.4
23/07:30pm 14.2 10.4 7.7 65 3.2 SSE 17 24 9 13 1025.0 1025.0 8.4
23/07:00pm 14.2 9.9 7.9 66 3.1 SSE 20 28 11 15 1024.7 1024.7 8.4
23/06:30pm 14.1 9.4 7.8 66 3.1 SSE 22 30 12 16 1024.4 1024.4 8.4
23/06:00pm 14.2 9.2 7.9 66 3.1 SSE 24 35 13 19 1023.9 1023.9 8.4
23/05:30pm 14.2 9.3 8.6 69 2.8 SSE 24 33 13 18 1023.4 1023.4 8.4
23/05:00pm 14.2 9.1 9.1 71 2.6 SE 26 35 14 19 1023.1 1023.1 8.4
23/04:30pm 14.4 9.7 9.1 70 2.7 SE 24 35 13 19 1023.0 1023.0 8.4
23/04:00pm 14.5 9.1 9.6 72 2.5 SSE 28 39 15 21 1022.7 1022.7 8.4
23/03:30pm 14.8 9.2 10.0 73 2.5 SSE 30 43 16 23 1022.7 1022.7 8.4
23/03:00pm 14.9 9.6 9.9 72 2.6 SE 28 37 15 20 1022.4 1022.4 8.4
23/02:30pm 15.1 9.8 9.9 71 2.7 SE 28 39 15 21 1022.3 1022.3 8.4
23/02:00pm 15.1 10.2 10.1 72 2.6 SE 26 41 14 22 1022.1 1022.1 8.4
23/01:30pm 15.2 10.1 10.6 74 2.4 SE 28 39 15 21 1022.0 1022.0 8.4
23/01:00pm 15.0 10.4 11.2 78 2.0 SE 26 37 14 20 1022.0 1022.0 8.4
23/12:38pm 14.7 10.7 11.9 83 1.5 SE 24 33 13 18 1022.1 1022.1 8.4
23/12:30pm 14.3 12.3 12.6 89 0.9 ESE 15 32 8 17 1022.3 1022.3 8.4
23/12:00pm 13.8 13.2 13.6 99 0.1 ENE 9 15 5 8 1022.5 1022.5 8.2
23/11:30am 13.8 12.5 13.6 99 0.1 SE 13 20 7 11 1022.8 1022.8 4.2
23/11:00am 13.8 12.4 13.3 97 0.3 E 13 20 7 11 1022.7 1022.7 2.6
23/10:49am 14.1 11.6 13.4 96 0.4 ESE 19 24 10 13 1022.8 1022.8 1.6
23/10:30am 14.5 10.7 13.6 94 0.5 ESE 26 37 14 20 1022.8 1022.8 1.2
23/10:17am 14.8 10.5 13.2 90 0.9 SE 28 39 15 21 1022.6 1022.6 1.2
23/10:00am 13.4 13.1 13.4 100 0.0 E 7 9 4 5 1022.8 1022.8 1.2
23/09:53am 13.4 12.8 13.4 100 0.0 ESE 9 19 5 10 1022.7 1022.7 1.2
23/09:39am 12.8 12.0 12.8 100 0.0 E 9 11 5 6 1022.8 1022.8 0.6
23/09:30am 12.8 12.3 12.8 100 0.0 ESE 7 9 4 5 1022.7 1022.7 0.2
23/09:00am 11.8 12.0 11.8 100 0.0 S 2 6 1 3 1022.4 1022.4 5.8
23/08:48am 11.2 10.8 11.2 100 0.0 NW 4 7 2 4 1022.4 1022.4 4.6
23/08:30am 10.6 9.5 10.6 100 0.0 N 7 9 4 5 1022.0 1022.0 4.2
23/08:00am 9.9 8.2 9.9 100 0.0 WNW 9 9 5 5 1021.7 1021.7 3.4
23/07:30am 9.8 9.0 9.8 100 0.0 W 4 9 2 5 1021.6 1021.6 3.4
23/07:00am 10.1 8.8 9.9 99 0.1 W 7 9 4 5 1021.2 1021.2 3.4
23/06:30am 9.4 8.5 9.4 100 0.0 NNW 4 7 2 4 1020.7 1020.7 3.4
23/06:25am 9.3 8.8 9.3 100 0.0 NNW 2 7 1 4 1020.6 1020.6 3.4
23/06:00am 8.9 7.3 8.9 100 0.0 WNW 7 13 4 7 1020.7 1020.7 2.4
23/05:58am 8.5 6.8 8.5 100 0.0 NW 7 13 4 7 1020.6 1020.6 1.6
23/05:30am 8.8 7.4 8.8 100 0.0 NW 6 9 3 5 1020.0 1020.0 0.2
23/05:00am 9.0 8.7 8.8 99 0.1 CALM 0 0 0 0 1019.7 1019.7 0.2
23/04:30am 8.3 6.2 8.3 100 0.0 N 9 11 5 6 1019.5 1019.5 0.2
23/04:00am 8.5 7.4 8.5 100 0.0 E 4 7 2 4 1019.3 1019.3 0.2
23/03:30am 8.7 7.3 8.7 100 0.0 N 6 9 3 5 1019.3 1019.3 0.2
23/03:00am 9.1 7.6 9.1 100 0.0 N 7 9 4 5 1019.2 1019.2 0.2
23/02:30am 9.6 8.2 9.6 100 0.0 NW 7 9 4 5 1019.0 1019.0 0.2
23/02:27am 9.6 8.2 9.6 100 0.0 NW 7 9 4 5 1019.0 1019.0 0.2
23/02:00am 9.2 7.3 9.2 100 0.0 WNW 9 11 5 6 1019.0 1019.0 0.2
23/01:58am 9.2 7.3 9.2 100 0.0 WNW 9 11 5 6 1019.0 1019.0 0.2
23/01:57am 9.3 7.5 9.3 100 0.0 WNW 9 13 5 7 1018.9 1018.9 0.2
23/01:30am 9.1 7.2 8.9 99 0.1 NW 9 11 5 6 1019.0 1019.0 0.2
23/01:00am 9.1 7.6 9.1 100 0.0 W 7 7 4 4 1018.7 1018.7 0.2
23/12:30am 10.3 9.0 10.1 99 0.1 NW 7 7 4 4 1018.6 1018.6 0.2
23/12:01am 10.6 9.5 10.6 100 0.0 N 7 9 4 5 1018.6 1018.6 0.2
23/12:00am 10.7 9.6 10.7 100 0.0 N 7 9 4 5 1018.6 1018.6 0.2
 
Date/Time
WST
Temp
°C
App
Temp
°C
Dew
Point
°C
Rel
Hum
%
Delta-T
°C
Wind Press
QNH
hPa
Press
MSL
hPa
Rain since
9am
mm
Dir  Spd
km/h
Gust
km/h
Spd
kts
Gust
kts
22/11:38pm 11.0 10.2 11.0 100 0.0 N 6 9 3 5 1018.6 1018.6 0.2
22/11:30pm 11.3 10.6 11.3 100 0.0 N 6 9 3 5 1018.5 1018.5 0.2
22/11:00pm 11.5 10.6 11.3 99 0.1 N 7 7 4 4 1018.4 1018.4 0.2
22/10:30pm 11.4 10.0 11.0 97 0.2 NNW 9 9 5 5 1018.4 1018.4 0.2
22/10:00pm 12.5 11.8 11.9 96 0.3 ESE 7 9 4 5 1018.4 1018.4 0.2
22/09:30pm 12.7 12.1 11.8 94 0.5 E 6 9 3 5 1018.3 1018.3 0.2
22/09:00pm 13.3 12.5 11.6 89 0.9 ENE 7 9 4 5 1018.2 1018.2 0.2
22/08:30pm 13.7 14.2 11.6 87 1.1 CALM 0 0 0 0 1018.0 1018.0 0.2
22/08:00pm 13.6 14.1 11.7 88 1.0 CALM 0 0 0 0 1017.9 1017.9 0.2
22/07:30pm 13.1 12.5 11.8 92 0.7 NE 6 7 3 4 1017.6 1017.6 0.2
22/07:00pm 13.6 12.4 11.7 88 1.0 ESE 9 11 5 6 1017.1 1017.0 0.2
22/06:30pm 14.5 13.1 12.3 87 1.2 E 11 17 6 9 1016.7 1016.6 0.2
22/06:00pm 15.2 13.6 12.8 85 1.3 ESE 13 17 7 9 1016.3 1016.2 0.2
22/05:30pm 15.6 13.5 12.5 82 1.7 SE 15 22 8 12 1016.1 1016.0 0.2
22/05:00pm 16.4 14.9 12.0 75 2.4 SE 11 13 6 7 1015.7 1015.6 0.2
22/04:30pm 17.0 16.5 11.9 72 2.8 ESE 6 13 3 7 1015.5 1015.4 0.2
22/04:00pm 18.0 17.2 11.2 64 3.7 NNE 6 7 3 4 1015.1 1015.1 0.2
22/03:30pm 17.8 17.1 11.4 66 3.5 NNE 6 9 3 5 1014.8 1014.8 0.2
22/03:00pm 18.4 16.7 11.2 63 3.9 NNE 11 17 6 9 1014.5 1014.5 0.2
22/02:30pm 18.0 16.0 11.4 65 3.6 N 13 17 7 9 1014.4 1014.4 0.2
22/02:00pm 18.4 17.1 11.2 63 3.9 NNE 9 15 5 8 1014.5 1014.5 0.2
22/01:30pm 18.6 17.1 11.9 65 3.7 NNE 11 17 6 9 1014.5 1014.5 0.2
22/01:00pm 17.5 16.4 11.8 69 3.1 ENE 9 17 5 9 1014.6 1014.6 0.2
22/12:30pm 16.2 14.8 13.5 84 1.5 SE 13 19 7 10 1014.8 1014.8 0.2
22/12:00pm 16.0 13.9 12.4 79 2.0 ESE 15 20 8 11 1015.0 1015.0 0.2

Other Formats:

Comma delimited format used in spreadsheet applications
http://www.bom.gov.au/fwo/IDW60801/IDW60801.94638.axf

JavaScript Object Notation format (JSON) in row-major order
http://www.bom.gov.au/fwo/IDW60801/IDW60801.94638.json